This is the latest recevied weather packets stored in our database for station/object KY0TEQ-13. If no packets are shown the sender has not sent any weather packets the latest 10 day(s).
| Time | Temp. | Humidity | Pressure | Rain* | Wind** | Luminosity | Snow |
|---|---|---|---|---|---|---|---|
| 1777434531 | 3.89° C | 38% | 1304.3 hPa | 0 mm | - | 0 W/m² | - |
| 1777434228 | 4.44° C | 37% | 1304.4 hPa | 0 mm | - | 0 W/m² | - |
| 1777433925 | 3.89° C | 40% | 1304.3 hPa | 0 mm | - | 0 W/m² | - |
| 1777433622 | 3.89° C | 40% | 1304.5 hPa | 0 mm | - | 0 W/m² | - |
| 1777433317 | 4.44° C | 37% | 1304.4 hPa | 0 mm | - | 0 W/m² | - |
| 1777433014 | 5.56° C | 36% | 1304.4 hPa | 0 mm | - | 0 W/m² | - |
| 1777432709 | 7.22° C | 29% | 1304 hPa | 0 mm | - | 0 W/m² | - |
| 1777432405 | 7.22° C | 28% | 1304.3 hPa | 0 mm | - | 0 W/m² | - |
| 1777432100 | 7.22° C | 28% | 1304.3 hPa | 0 mm | - | 0 W/m² | - |
| 1777431796 | 6.67° C | 29% | 1303.9 hPa | 0 mm | - | 0 W/m² | - |
| 1777431492 | 7.22° C | 30% | 1304.1 hPa | 0 mm | - | 0 W/m² | - |
| 1777431188 | 7.78° C | 26% | 1304 hPa | 0 mm | - | 0 W/m² | - |
| 1777430884 | 6.11° C | 30% | 1303.8 hPa | 0 mm | - | 0 W/m² | - |
| 1777430581 | 6.11° C | 33% | 1303.9 hPa | 0 mm | - | 0 W/m² | - |
| 1777430275 | 7.22° C | 29% | 1303.7 hPa | 0 mm | - | 0 W/m² | - |
| 1777429970 | 6.67° C | 30% | 1303.7 hPa | 0 mm | - | 0 W/m² | - |
| 1777429668 | 6.67° C | 32% | 1303.7 hPa | 0 mm | - | 0 W/m² | - |
| 1777429363 | 7.22° C | 32% | 1303.5 hPa | 0 mm | - | 0 W/m² | - |
| 1777429059 | 8.33° C | 27% | 1303.3 hPa | 0 mm | - | 0 W/m² | - |
| 1777428756 | 8.33° C | 27% | 1303.4 hPa | 0 mm | - | 0 W/m² | - |
| 1777428451 | 8.89° C | 25% | 1303.5 hPa | 0 mm | - | 1 W/m² | - |
| 1777428147 | 10° C | 23% | 1303.4 hPa | 0 mm | - | 2 W/m² | - |
| 1777427843 | 10° C | 23% | 1303.5 hPa | 0 mm | - | 3 W/m² | - |
| 1777427540 | 10.56° C | 22% | 1303.4 hPa | 0 mm | - | 5 W/m² | - |
| 1777427236 | 11.67° C | 20% | 1303.3 hPa | 0 mm | - | 8 W/m² | - |
* Rain latest hour (hover to see other rain measurements)
** Current wind speed in m/s (hover to see current wind gust speed)